sensor_id;sensor_type;location;lat;lon;timestamp;P1;durP1;ratioP1;P2;durP2;ratioP2
51738;SDS011;37815;52.692;6.226;2023-11-19T00:04:33;9.02;;;5.72;;
51738;SDS011;37815;52.692;6.226;2023-11-19T00:09:38;10.07;;;6.10;;
51738;SDS011;37815;52.692;6.226;2023-11-19T00:14:39;9.95;;;6.00;;
51738;SDS011;37815;52.692;6.226;2023-11-19T00:19:41;9.10;;;5.50;;
51738;SDS011;37815;52.692;6.226;2023-11-19T00:24:41;8.43;;;5.23;;
51738;SDS011;37815;52.692;6.226;2023-11-19T00:29:42;10.60;;;5.30;;
51738;SDS011;37815;52.692;6.226;2023-11-19T00:34:45;10.40;;;5.63;;
51738;SDS011;37815;52.692;6.226;2023-11-19T00:39:47;11.00;;;5.47;;
51738;SDS011;37815;52.692;6.226;2023-11-19T00:44:48;8.45;;;4.80;;
51738;SDS011;37815;52.692;6.226;2023-11-19T00:49:49;14.30;;;5.50;;
51738;SDS011;37815;52.692;6.226;2023-11-19T00:54:50;10.15;;;4.80;;
51738;SDS011;37815;52.692;6.226;2023-11-19T00:59:51;10.13;;;4.82;;
51738;SDS011;37815;52.692;6.226;2023-11-19T01:04:51;9.83;;;4.50;;
51738;SDS011;37815;52.692;6.226;2023-11-19T01:09:52;7.97;;;4.28;;
51738;SDS011;37815;52.692;6.226;2023-11-19T01:14:54;9.48;;;4.30;;
51738;SDS011;37815;52.692;6.226;2023-11-19T01:19:54;8.77;;;4.30;;
51738;SDS011;37815;52.692;6.226;2023-11-19T01:24:55;8.60;;;4.05;;
51738;SDS011;37815;52.692;6.226;2023-11-19T01:29:56;10.13;;;3.97;;
51738;SDS011;37815;52.692;6.226;2023-11-19T01:34:56;8.83;;;4.10;;
51738;SDS011;37815;52.692;6.226;2023-11-19T01:39:57;8.17;;;4.07;;
51738;SDS011;37815;52.692;6.226;2023-11-19T01:44:58;7.40;;;3.42;;
51738;SDS011;37815;52.692;6.226;2023-11-19T01:49:59;8.60;;;3.42;;
51738;SDS011;37815;52.692;6.226;2023-11-19T01:55:01;7.57;;;3.57;;
51738;SDS011;37815;52.692;6.226;2023-11-19T02:00:03;8.70;;;3.30;;
51738;SDS011;37815;52.692;6.226;2023-11-19T02:05:04;9.07;;;3.17;;
51738;SDS011;37815;52.692;6.226;2023-11-19T02:10:05;8.63;;;3.45;;
51738;SDS011;37815;52.692;6.226;2023-11-19T02:15:07;7.53;;;3.53;;
51738;SDS011;37815;52.692;6.226;2023-11-19T02:20:08;8.70;;;3.00;;
51738;SDS011;37815;52.692;6.226;2023-11-19T02:25:12;9.50;;;3.00;;
51738;SDS011;37815;52.692;6.226;2023-11-19T02:30:19;8.05;;;2.88;;
51738;SDS011;37815;52.692;6.226;2023-11-19T02:35:20;7.27;;;3.30;;
51738;SDS011;37815;52.692;6.226;2023-11-19T02:40:21;8.77;;;2.80;;
51738;SDS011;37815;52.692;6.226;2023-11-19T02:45:25;7.55;;;2.72;;
51738;SDS011;37815;52.692;6.226;2023-11-19T02:50:26;11.68;;;2.90;;
51738;SDS011;37815;52.692;6.226;2023-11-19T02:55:27;12.40;;;3.17;;
51738;SDS011;37815;52.692;6.226;2023-11-19T03:00:30;8.13;;;2.67;;
51738;SDS011;37815;52.692;6.226;2023-11-19T03:05:37;8.77;;;2.80;;
51738;SDS011;37815;52.692;6.226;2023-11-19T03:10:38;12.38;;;2.85;;
51738;SDS011;37815;52.692;6.226;2023-11-19T03:15:38;12.73;;;3.20;;
51738;SDS011;37815;52.692;6.226;2023-11-19T03:20:39;9.07;;;2.80;;
51738;SDS011;37815;52.692;6.226;2023-11-19T03:25:40;12.60;;;3.92;;
51738;SDS011;37815;52.692;6.226;2023-11-19T03:30:41;9.63;;;2.60;;
51738;SDS011;37815;52.692;6.226;2023-11-19T03:35:41;11.20;;;2.80;;
51738;SDS011;37815;52.692;6.226;2023-11-19T03:40:42;9.50;;;2.93;;
51738;SDS011;37815;52.692;6.226;2023-11-19T03:45:43;13.10;;;3.23;;
51738;SDS011;37815;52.692;6.226;2023-11-19T03:50:43;11.07;;;2.90;;
51738;SDS011;37815;52.692;6.226;2023-11-19T03:55:44;11.93;;;2.87;;
51738;SDS011;37815;52.692;6.226;2023-11-19T04:00:45;10.52;;;3.20;;
51738;SDS011;37815;52.692;6.226;2023-11-19T04:05:45;12.73;;;3.33;;
51738;SDS011;37815;52.692;6.226;2023-11-19T04:10:46;15.20;;;3.07;;
51738;SDS011;37815;52.692;6.226;2023-11-19T04:15:47;12.23;;;2.78;;
51738;SDS011;37815;52.692;6.226;2023-11-19T04:20:49;17.83;;;3.28;;
51738;SDS011;37815;52.692;6.226;2023-11-19T04:25:50;10.95;;;2.95;;
51738;SDS011;37815;52.692;6.226;2023-11-19T04:30:51;14.77;;;3.23;;
51738;SDS011;37815;52.692;6.226;2023-11-19T04:35:52;11.90;;;3.30;;
51738;SDS011;37815;52.692;6.226;2023-11-19T04:40:52;12.20;;;2.87;;
51738;SDS011;37815;52.692;6.226;2023-11-19T04:45:53;11.27;;;2.90;;
51738;SDS011;37815;52.692;6.226;2023-11-19T04:50:53;13.73;;;3.20;;
51738;SDS011;37815;52.692;6.226;2023-11-19T04:55:54;14.37;;;3.27;;
51738;SDS011;37815;52.692;6.226;2023-11-19T05:00:55;13.73;;;3.00;;
51738;SDS011;37815;52.692;6.226;2023-11-19T05:05:56;12.43;;;2.92;;
51738;SDS011;37815;52.692;6.226;2023-11-19T05:10:57;14.25;;;3.10;;
51738;SDS011;37815;52.692;6.226;2023-11-19T05:15:59;14.48;;;3.20;;
51738;SDS011;37815;52.692;6.226;2023-11-19T05:20:59;13.13;;;2.90;;
51738;SDS011;37815;52.692;6.226;2023-11-19T05:26:03;13.87;;;3.07;;
51738;SDS011;37815;52.692;6.226;2023-11-19T05:31:04;14.35;;;3.40;;
51738;SDS011;37815;52.692;6.226;2023-11-19T05:36:06;16.20;;;3.20;;
51738;SDS011;37815;52.692;6.226;2023-11-19T05:41:08;15.57;;;3.57;;
51738;SDS011;37815;52.692;6.226;2023-11-19T05:46:08;17.70;;;3.58;;
51738;SDS011;37815;52.692;6.226;2023-11-19T05:51:09;14.30;;;3.10;;
51738;SDS011;37815;52.692;6.226;2023-11-19T05:56:09;18.17;;;3.47;;
51738;SDS011;37815;52.692;6.226;2023-11-19T06:01:10;16.07;;;3.43;;
51738;SDS011;37815;52.692;6.226;2023-11-19T06:06:10;14.80;;;3.20;;
51738;SDS011;37815;52.692;6.226;2023-11-19T06:11:12;13.90;;;3.33;;
51738;SDS011;37815;52.692;6.226;2023-11-19T06:16:18;17.17;;;3.47;;
51738;SDS011;37815;52.692;6.226;2023-11-19T06:21:19;13.98;;;3.05;;
51738;SDS011;37815;52.692;6.226;2023-11-19T06:26:19;12.20;;;2.93;;
51738;SDS011;37815;52.692;6.226;2023-11-19T06:31:22;13.32;;;3.05;;
51738;SDS011;37815;52.692;6.226;2023-11-19T06:36:22;17.07;;;3.23;;
51738;SDS011;37815;52.692;6.226;2023-11-19T06:41:23;14.30;;;2.90;;
51738;SDS011;37815;52.692;6.226;2023-11-19T06:46:23;11.43;;;3.60;;
51738;SDS011;37815;52.692;6.226;2023-11-19T06:51:25;14.77;;;3.03;;
51738;SDS011;37815;52.692;6.226;2023-11-19T06:56:26;14.07;;;2.90;;
51738;SDS011;37815;52.692;6.226;2023-11-19T07:01:26;15.35;;;3.03;;
51738;SDS011;37815;52.692;6.226;2023-11-19T07:06:27;15.23;;;3.20;;
51738;SDS011;37815;52.692;6.226;2023-11-19T07:11:28;13.75;;;3.00;;
51738;SDS011;37815;52.692;6.226;2023-11-19T07:16:29;13.38;;;3.17;;
51738;SDS011;37815;52.692;6.226;2023-11-19T07:21:29;12.67;;;3.33;;
51738;SDS011;37815;52.692;6.226;2023-11-19T07:26:30;17.90;;;3.73;;
51738;SDS011;37815;52.692;6.226;2023-11-19T07:31:32;14.87;;;3.30;;
51738;SDS011;37815;52.692;6.226;2023-11-19T07:36:33;19.65;;;3.78;;
51738;SDS011;37815;52.692;6.226;2023-11-19T07:41:33;11.67;;;3.10;;
51738;SDS011;37815;52.692;6.226;2023-11-19T07:46:34;13.90;;;3.33;;
51738;SDS011;37815;52.692;6.226;2023-11-19T07:51:35;14.50;;;3.27;;
51738;SDS011;37815;52.692;6.226;2023-11-19T07:56:36;15.33;;;3.10;;
51738;SDS011;37815;52.692;6.226;2023-11-19T08:01:37;11.30;;;2.88;;
51738;SDS011;37815;52.692;6.226;2023-11-19T08:06:37;15.27;;;3.43;;
51738;SDS011;37815;52.692;6.226;2023-11-19T08:11:38;12.70;;;3.10;;
51738;SDS011;37815;52.692;6.226;2023-11-19T08:16:39;17.30;;;2.90;;
51738;SDS011;37815;52.692;6.226;2023-11-19T08:21:40;15.60;;;3.87;;
51738;SDS011;37815;52.692;6.226;2023-11-19T08:26:41;14.68;;;3.20;;
51738;SDS011;37815;52.692;6.226;2023-11-19T08:31:42;13.63;;;2.83;;
51738;SDS011;37815;52.692;6.226;2023-11-19T08:36:43;14.97;;;3.03;;
51738;SDS011;37815;52.692;6.226;2023-11-19T08:41:44;14.88;;;3.30;;
51738;SDS011;37815;52.692;6.226;2023-11-19T08:46:46;14.32;;;2.78;;
51738;SDS011;37815;52.692;6.226;2023-11-19T08:51:48;14.98;;;2.95;;
51738;SDS011;37815;52.692;6.226;2023-11-19T08:56:48;17.20;;;3.87;;
51738;SDS011;37815;52.692;6.226;2023-11-19T09:01:50;16.90;;;3.20;;
51738;SDS011;37815;52.692;6.226;2023-11-19T09:06:52;13.85;;;3.25;;
51738;SDS011;37815;52.692;6.226;2023-11-19T09:11:52;12.77;;;3.00;;
51738;SDS011;37815;52.692;6.226;2023-11-19T09:16:53;13.77;;;3.40;;
51738;SDS011;37815;52.692;6.226;2023-11-19T09:21:54;14.57;;;3.03;;
51738;SDS011;37815;52.692;6.226;2023-11-19T09:26:54;12.53;;;3.00;;
51738;SDS011;37815;52.692;6.226;2023-11-19T09:31:56;14.93;;;3.08;;
51738;SDS011;37815;52.692;6.226;2023-11-19T09:36:57;11.93;;;3.13;;
51738;SDS011;37815;52.692;6.226;2023-11-19T09:41:57;16.43;;;2.93;;
51738;SDS011;37815;52.692;6.226;2023-11-19T09:46:58;16.93;;;3.27;;
51738;SDS011;37815;52.692;6.226;2023-11-19T09:51:59;14.10;;;2.97;;
51738;SDS011;37815;52.692;6.226;2023-11-19T09:57:00;18.90;;;3.10;;
51738;SDS011;37815;52.692;6.226;2023-11-19T10:02:06;12.27;;;2.75;;
51738;SDS011;37815;52.692;6.226;2023-11-19T10:07:07;13.43;;;3.20;;
51738;SDS011;37815;52.692;6.226;2023-11-19T10:12:08;18.50;;;3.20;;
51738;SDS011;37815;52.692;6.226;2023-11-19T10:17:08;12.82;;;3.05;;
51738;SDS011;37815;52.692;6.226;2023-11-19T10:22:09;13.63;;;3.40;;
51738;SDS011;37815;52.692;6.226;2023-11-19T10:27:11;11.50;;;2.50;;
51738;SDS011;37815;52.692;6.226;2023-11-19T10:32:12;13.97;;;3.03;;
51738;SDS011;37815;52.692;6.226;2023-11-19T10:37:29;17.58;;;3.00;;
51738;SDS011;37815;52.692;6.226;2023-11-19T10:42:31;17.85;;;3.42;;
51738;SDS011;37815;52.692;6.226;2023-11-19T10:47:32;18.17;;;2.83;;
51738;SDS011;37815;52.692;6.226;2023-11-19T10:52:34;14.25;;;3.25;;
51738;SDS011;37815;52.692;6.226;2023-11-19T10:57:36;18.53;;;3.77;;
51738;SDS011;37815;52.692;6.226;2023-11-19T11:02:40;17.30;;;3.75;;
51738;SDS011;37815;52.692;6.226;2023-11-19T11:07:45;16.97;;;3.37;;
51738;SDS011;37815;52.692;6.226;2023-11-19T11:12:46;16.13;;;3.30;;
51738;SDS011;37815;52.692;6.226;2023-11-19T11:17:48;19.77;;;3.57;;
51738;SDS011;37815;52.692;6.226;2023-11-19T11:23:36;17.38;;;3.78;;
51738;SDS011;37815;52.692;6.226;2023-11-19T11:38:47;16.73;;;3.40;;
51738;SDS011;37815;52.692;6.226;2023-11-19T11:43:50;18.60;;;3.40;;
51738;SDS011;37815;52.692;6.226;2023-11-19T11:48:55;18.38;;;3.25;;
51738;SDS011;37815;52.692;6.226;2023-11-19T11:53:58;19.77;;;3.78;;
51738;SDS011;37815;52.692;6.226;2023-11-19T11:58:58;15.50;;;3.50;;
51738;SDS011;37815;52.692;6.226;2023-11-19T12:04:00;14.80;;;3.47;;
51738;SDS011;37815;52.692;6.226;2023-11-19T12:09:00;15.60;;;3.23;;
51738;SDS011;37815;52.692;6.226;2023-11-19T12:14:02;17.88;;;3.25;;
51738;SDS011;37815;52.692;6.226;2023-11-19T12:19:03;20.20;;;3.67;;
51738;SDS011;37815;52.692;6.226;2023-11-19T12:24:08;14.65;;;2.75;;
51738;SDS011;37815;52.692;6.226;2023-11-19T12:29:10;14.27;;;3.40;;
51738;SDS011;37815;52.692;6.226;2023-11-19T12:34:11;16.97;;;3.53;;
51738;SDS011;37815;52.692;6.226;2023-11-19T12:39:12;13.82;;;3.30;;
51738;SDS011;37815;52.692;6.226;2023-11-19T12:44:13;15.82;;;2.97;;
51738;SDS011;37815;52.692;6.226;2023-11-19T12:49:13;14.53;;;3.30;;
51738;SDS011;37815;52.692;6.226;2023-11-19T12:54:14;16.57;;;3.23;;
51738;SDS011;37815;52.692;6.226;2023-11-19T12:59:14;20.50;;;3.40;;
51738;SDS011;37815;52.692;6.226;2023-11-19T13:04:17;16.40;;;3.20;;
51738;SDS011;37815;52.692;6.226;2023-11-19T13:09:22;16.63;;;3.38;;
51738;SDS011;37815;52.692;6.226;2023-11-19T13:14:36;23.13;;;3.40;;
51738;SDS011;37815;52.692;6.226;2023-11-19T13:19:42;15.23;;;3.50;;
51738;SDS011;37815;52.692;6.226;2023-11-19T13:24:42;22.00;;;3.85;;
51738;SDS011;37815;52.692;6.226;2023-11-19T13:29:43;19.43;;;3.53;;
51738;SDS011;37815;52.692;6.226;2023-11-19T13:34:43;19.00;;;3.53;;
51738;SDS011;37815;52.692;6.226;2023-11-19T13:39:44;19.50;;;3.78;;
51738;SDS011;37815;52.692;6.226;2023-11-19T13:44:45;16.57;;;3.27;;
51738;SDS011;37815;52.692;6.226;2023-11-19T13:49:46;16.05;;;2.90;;
51738;SDS011;37815;52.692;6.226;2023-11-19T13:54:47;17.58;;;2.90;;
51738;SDS011;37815;52.692;6.226;2023-11-19T13:59:47;16.33;;;3.10;;
51738;SDS011;37815;52.692;6.226;2023-11-19T14:04:48;16.23;;;3.30;;
51738;SDS011;37815;52.692;6.226;2023-11-19T14:09:48;18.23;;;3.67;;
51738;SDS011;37815;52.692;6.226;2023-11-19T14:14:50;16.00;;;3.33;;
51738;SDS011;37815;52.692;6.226;2023-11-19T14:19:50;19.57;;;3.37;;
51738;SDS011;37815;52.692;6.226;2023-11-19T14:24:51;14.60;;;3.40;;
51738;SDS011;37815;52.692;6.226;2023-11-19T14:29:53;14.10;;;3.03;;
51738;SDS011;37815;52.692;6.226;2023-11-19T14:34:54;15.52;;;2.88;;
51738;SDS011;37815;52.692;6.226;2023-11-19T14:39:55;13.90;;;3.10;;
51738;SDS011;37815;52.692;6.226;2023-11-19T14:44:55;12.83;;;2.90;;
51738;SDS011;37815;52.692;6.226;2023-11-19T14:49:56;16.50;;;3.37;;
51738;SDS011;37815;52.692;6.226;2023-11-19T14:54:56;16.07;;;3.27;;
51738;SDS011;37815;52.692;6.226;2023-11-19T14:59:57;13.07;;;2.90;;
51738;SDS011;37815;52.692;6.226;2023-11-19T15:04:58;16.60;;;3.30;;
51738;SDS011;37815;52.692;6.226;2023-11-19T15:09:58;14.88;;;3.17;;
51738;SDS011;37815;52.692;6.226;2023-11-19T15:15:00;13.27;;;2.70;;
51738;SDS011;37815;52.692;6.226;2023-11-19T15:20:03;14.40;;;2.90;;
51738;SDS011;37815;52.692;6.226;2023-11-19T15:25:04;12.88;;;2.88;;
51738;SDS011;37815;52.692;6.226;2023-11-19T15:30:10;12.90;;;2.70;;
51738;SDS011;37815;52.692;6.226;2023-11-19T15:35:11;12.43;;;2.30;;
51738;SDS011;37815;52.692;6.226;2023-11-19T15:40:12;13.23;;;2.88;;
51738;SDS011;37815;52.692;6.226;2023-11-19T15:45:13;11.70;;;2.30;;
51738;SDS011;37815;52.692;6.226;2023-11-19T15:50:13;9.47;;;2.27;;
51738;SDS011;37815;52.692;6.226;2023-11-19T15:55:14;15.30;;;3.23;;
51738;SDS011;37815;52.692;6.226;2023-11-19T16:00:16;10.50;;;2.47;;
51738;SDS011;37815;52.692;6.226;2023-11-19T16:05:17;10.40;;;2.53;;
51738;SDS011;37815;52.692;6.226;2023-11-19T16:10:17;12.03;;;2.53;;
51738;SDS011;37815;52.692;6.226;2023-11-19T16:15:21;12.10;;;2.53;;
51738;SDS011;37815;52.692;6.226;2023-11-19T16:20:22;13.27;;;3.00;;
51738;SDS011;37815;52.692;6.226;2023-11-19T16:25:22;16.23;;;3.30;;
51738;SDS011;37815;52.692;6.226;2023-11-19T16:30:23;15.87;;;3.27;;
51738;SDS011;37815;52.692;6.226;2023-11-19T16:35:24;16.77;;;3.22;;
51738;SDS011;37815;52.692;6.226;2023-11-19T16:40:25;16.25;;;3.00;;
51738;SDS011;37815;52.692;6.226;2023-11-19T16:45:26;14.80;;;3.20;;
51738;SDS011;37815;52.692;6.226;2023-11-19T16:50:26;14.37;;;3.10;;
51738;SDS011;37815;52.692;6.226;2023-11-19T16:55:29;18.00;;;3.40;;
51738;SDS011;37815;52.692;6.226;2023-11-19T17:00:30;18.67;;;3.28;;
51738;SDS011;37815;52.692;6.226;2023-11-19T17:05:31;17.43;;;3.17;;
51738;SDS011;37815;52.692;6.226;2023-11-19T17:10:35;12.57;;;2.70;;
51738;SDS011;37815;52.692;6.226;2023-11-19T17:15:36;18.90;;;3.40;;
51738;SDS011;37815;52.692;6.226;2023-11-19T17:20:36;11.95;;;2.90;;
51738;SDS011;37815;52.692;6.226;2023-11-19T17:25:38;12.65;;;2.60;;
51738;SDS011;37815;52.692;6.226;2023-11-19T17:30:40;13.30;;;3.00;;
51738;SDS011;37815;52.692;6.226;2023-11-19T17:35:42;10.55;;;2.70;;
51738;SDS011;37815;52.692;6.226;2023-11-19T17:40:42;12.73;;;2.55;;
51738;SDS011;37815;52.692;6.226;2023-11-19T17:45:43;16.03;;;2.90;;
51738;SDS011;37815;52.692;6.226;2023-11-19T17:50:44;14.30;;;3.27;;
51738;SDS011;37815;52.692;6.226;2023-11-19T17:55:44;12.75;;;3.28;;
51738;SDS011;37815;52.692;6.226;2023-11-19T18:00:45;15.30;;;2.83;;
51738;SDS011;37815;52.692;6.226;2023-11-19T18:05:45;15.27;;;3.20;;
51738;SDS011;37815;52.692;6.226;2023-11-19T18:10:48;16.40;;;3.17;;
51738;SDS011;37815;52.692;6.226;2023-11-19T18:15:49;13.02;;;3.10;;
51738;SDS011;37815;52.692;6.226;2023-11-19T18:20:50;12.83;;;3.03;;
51738;SDS011;37815;52.692;6.226;2023-11-19T18:25:50;14.67;;;3.17;;
51738;SDS011;37815;52.692;6.226;2023-11-19T18:30:52;10.95;;;2.80;;
51738;SDS011;37815;52.692;6.226;2023-11-19T18:35:52;9.17;;;2.40;;
51738;SDS011;37815;52.692;6.226;2023-11-19T18:40:53;13.77;;;3.55;;
51738;SDS011;37815;52.692;6.226;2023-11-19T18:45:53;11.47;;;2.70;;
51738;SDS011;37815;52.692;6.226;2023-11-19T18:50:55;11.93;;;2.50;;
51738;SDS011;37815;52.692;6.226;2023-11-19T18:55:56;11.33;;;2.50;;
51738;SDS011;37815;52.692;6.226;2023-11-19T19:00:56;10.53;;;2.60;;
51738;SDS011;37815;52.692;6.226;2023-11-19T19:05:57;12.90;;;2.77;;
51738;SDS011;37815;52.692;6.226;2023-11-19T19:10:58;12.27;;;2.55;;
51738;SDS011;37815;52.692;6.226;2023-11-19T19:15:59;10.03;;;2.23;;
51738;SDS011;37815;52.692;6.226;2023-11-19T19:21:00;12.00;;;2.83;;
51738;SDS011;37815;52.692;6.226;2023-11-19T19:26:00;8.37;;;2.33;;
51738;SDS011;37815;52.692;6.226;2023-11-19T19:31:01;9.95;;;2.97;;
51738;SDS011;37815;52.692;6.226;2023-11-19T19:36:02;9.63;;;2.80;;
51738;SDS011;37815;52.692;6.226;2023-11-19T19:41:03;8.00;;;2.30;;
51738;SDS011;37815;52.692;6.226;2023-11-19T19:46:04;8.60;;;2.40;;
51738;SDS011;37815;52.692;6.226;2023-11-19T19:51:05;7.68;;;2.20;;
51738;SDS011;37815;52.692;6.226;2023-11-19T19:56:07;8.23;;;2.40;;
51738;SDS011;37815;52.692;6.226;2023-11-19T20:01:08;8.18;;;2.30;;
51738;SDS011;37815;52.692;6.226;2023-11-19T20:06:10;5.43;;;2.17;;
51738;SDS011;37815;52.692;6.226;2023-11-19T20:11:11;7.82;;;2.10;;
51738;SDS011;37815;52.692;6.226;2023-11-19T20:16:12;7.68;;;2.58;;
51738;SDS011;37815;52.692;6.226;2023-11-19T20:21:13;6.73;;;2.37;;
51738;SDS011;37815;52.692;6.226;2023-11-19T20:26:13;7.00;;;2.10;;
51738;SDS011;37815;52.692;6.226;2023-11-19T20:31:18;7.37;;;2.10;;
51738;SDS011;37815;52.692;6.226;2023-11-19T20:36:19;5.45;;;2.13;;
51738;SDS011;37815;52.692;6.226;2023-11-19T20:41:21;8.52;;;2.50;;
51738;SDS011;37815;52.692;6.226;2023-11-19T20:46:22;7.70;;;2.30;;
51738;SDS011;37815;52.692;6.226;2023-11-19T20:51:23;5.78;;;1.90;;
51738;SDS011;37815;52.692;6.226;2023-11-19T20:56:23;6.70;;;2.10;;
51738;SDS011;37815;52.692;6.226;2023-11-19T21:01:24;7.33;;;2.30;;
51738;SDS011;37815;52.692;6.226;2023-11-19T21:06:27;5.60;;;1.90;;
51738;SDS011;37815;52.692;6.226;2023-11-19T21:11:27;6.85;;;1.98;;
51738;SDS011;37815;52.692;6.226;2023-11-19T21:16:29;6.35;;;2.00;;
51738;SDS011;37815;52.692;6.226;2023-11-19T21:21:30;8.07;;;2.33;;
51738;SDS011;37815;52.692;6.226;2023-11-19T21:26:30;5.63;;;2.07;;
51738;SDS011;37815;52.692;6.226;2023-11-19T21:31:31;8.30;;;2.80;;
51738;SDS011;37815;52.692;6.226;2023-11-19T21:36:31;8.85;;;2.28;;
51738;SDS011;37815;52.692;6.226;2023-11-19T21:41:32;8.00;;;2.37;;
51738;SDS011;37815;52.692;6.226;2023-11-19T21:46:33;8.35;;;2.28;;
51738;SDS011;37815;52.692;6.226;2023-11-19T21:51:38;8.27;;;2.22;;
51738;SDS011;37815;52.692;6.226;2023-11-19T21:56:40;5.40;;;1.90;;
51738;SDS011;37815;52.692;6.226;2023-11-19T22:01:41;8.87;;;2.13;;
51738;SDS011;37815;52.692;6.226;2023-11-19T22:06:43;7.90;;;2.42;;
51738;SDS011;37815;52.692;6.226;2023-11-19T22:11:43;8.13;;;2.37;;
51738;SDS011;37815;52.692;6.226;2023-11-19T22:16:44;9.82;;;2.13;;
51738;SDS011;37815;52.692;6.226;2023-11-19T22:21:45;6.38;;;2.00;;
51738;SDS011;37815;52.692;6.226;2023-11-19T22:26:46;7.03;;;2.00;;
51738;SDS011;37815;52.692;6.226;2023-11-19T22:31:46;7.20;;;2.70;;
51738;SDS011;37815;52.692;6.226;2023-11-19T22:36:47;7.63;;;2.03;;
51738;SDS011;37815;52.692;6.226;2023-11-19T22:41:49;8.68;;;2.38;;
51738;SDS011;37815;52.692;6.226;2023-11-19T22:46:50;10.57;;;2.10;;
51738;SDS011;37815;52.692;6.226;2023-11-19T22:51:51;6.87;;;1.90;;
51738;SDS011;37815;52.692;6.226;2023-11-19T22:56:51;7.77;;;2.10;;
51738;SDS011;37815;52.692;6.226;2023-11-19T23:01:52;8.75;;;2.47;;
51738;SDS011;37815;52.692;6.226;2023-11-19T23:06:52;7.13;;;2.20;;
51738;SDS011;37815;52.692;6.226;2023-11-19T23:11:53;8.23;;;2.40;;
51738;SDS011;37815;52.692;6.226;2023-11-19T23:16:53;6.63;;;2.30;;
51738;SDS011;37815;52.692;6.226;2023-11-19T23:21:54;8.13;;;2.17;;
51738;SDS011;37815;52.692;6.226;2023-11-19T23:26:55;7.37;;;2.17;;
51738;SDS011;37815;52.692;6.226;2023-11-19T23:31:56;5.40;;;1.80;;
51738;SDS011;37815;52.692;6.226;2023-11-19T23:36:57;7.23;;;1.90;;
51738;SDS011;37815;52.692;6.226;2023-11-19T23:41:57;5.87;;;1.80;;
51738;SDS011;37815;52.692;6.226;2023-11-19T23:46:58;7.00;;;2.10;;
51738;SDS011;37815;52.692;6.226;2023-11-19T23:51:58;5.43;;;1.98;;
51738;SDS011;37815;52.692;6.226;2023-11-19T23:57:02;6.20;;;2.10;;
